Time;durP1;ratioP1;P1;durP2;ratioP2;P2;SDS_P1;SDS_P2;PMS_P1;PMS_P2;Temp;Humidity;BMP_temperature;BMP_pressure;BME280_temperature;BME280_humidity;BME280_pressure;Samples;Min_cycle;Max_cycle;Signal;HPM_P1;HPM_P2
2023/08/13 00:02:17;;;;;;;6.00;4.30;;;;;;;20.51;77.88;100593.16;105129;1256;69033;-60
2023/08/13 00:04:44;;;;;;;4.60;3.20;;;;;;;20.55;78.01;100598.89;105260;1256;70504;-61
2023/08/13 00:07:11;;;;;;;4.20;2.90;;;;;;;20.76;78.66;100597.15;105329;1258;74766;-60
2023/08/13 00:09:40;;;;;;;4.90;2.80;;;;;;;20.92;78.48;100597.88;105154;1259;82462;-60
2023/08/13 00:12:07;;;;;;;3.90;2.80;;;;;;;21.11;78.54;100597.39;105126;1257;72671;-61
2023/08/13 00:14:34;;;;;;;4.80;3.10;;;;;;;21.33;78.41;100592.37;105227;1256;69170;-60
2023/08/13 00:17:02;;;;;;;3.10;2.60;;;;;;;21.48;78.09;100594.89;105365;1255;69096;-60
2023/08/13 00:19:29;;;;;;;4.10;2.70;;;;;;;21.61;77.81;100598.29;105145;1256;74584;-60
2023/08/13 00:21:56;;;;;;;6.80;2.70;;;;;;;21.73;77.44;100600.23;105304;1256;83967;-60
2023/08/13 00:24:34;;;;;;;4.10;2.20;;;;;;;21.83;77.14;100598.34;105304;1257;72650;-60
2023/08/13 00:27:01;;;;;;;2.60;2.40;;;;;;;21.90;76.86;100598.46;105180;1255;69104;-60
2023/08/13 00:29:28;;;;;;;4.80;2.50;;;;;;;21.94;76.65;100599.91;105240;1257;69235;-60
2023/08/13 00:31:55;;;;;;;3.60;2.30;;;;;;;21.98;76.48;100601.21;105162;1256;74621;-61
2023/08/13 00:34:23;;;;;;;3.70;2.20;;;;;;;22.01;76.34;100605.91;105179;1261;83235;-60
2023/08/13 00:36:50;;;;;;;4.00;2.40;;;;;;;22.02;76.21;100604.39;105117;1261;73713;-60
2023/08/13 00:39:17;;;;;;;4.60;2.40;;;;;;;22.02;76.11;100604.20;105124;1256;69097;-60
2023/08/13 00:41:44;;;;;;;4.30;2.90;;;;;;;22.03;76.28;100608.06;105126;1256;69235;-61
2023/08/13 00:44:11;;;;;;;3.50;2.40;;;;;;;22.03;76.09;100607.39;105178;1256;75272;-60
2023/08/13 00:46:39;;;;;;;3.80;2.60;;;;;;;22.03;75.96;100608.73;105094;1261;83308;-60
2023/08/13 00:49:05;;;;;;;3.30;2.30;;;;;;;22.05;75.89;100612.19;105104;1261;73566;-60
2023/08/13 00:51:32;;;;;;;3.10;2.30;;;;;;;22.04;75.84;100614.95;105061;1261;69251;-60
2023/08/13 00:53:59;;;;;;;2.80;2.40;;;;;;;22.02;75.94;100620.56;105040;1261;69301;-61
2023/08/13 00:56:27;;;;;;;3.30;2.60;;;;;;;22.02;75.91;100618.61;105019;1256;75809;-60
2023/08/13 00:58:54;;;;;;;3.60;2.20;;;;;;;22.03;75.87;100623.91;105316;1256;82710;-60
2023/08/13 01:01:21;;;;;;;2.80;2.30;;;;;;;22.02;75.99;100622.38;105251;1256;71655;-60
2023/08/13 01:03:48;;;;;;;4.40;2.40;;;;;;;22.02;76.03;100627.72;105129;1260;69288;-60
2023/08/13 01:06:18;;;;;;;4.50;2.50;;;;;;;22.02;76.08;100623.24;105306;1258;69118;-58
2023/08/13 01:08:48;;;;;;;2.70;2.00;;;;;;;22.01;76.15;100627.80;105274;1256;74567;-58
2023/08/13 01:11:29;;;;;;;2.80;2.20;;;;;;;21.94;76.09;100626.07;105126;1260;82381;-58
2023/08/13 01:14:14;;;;;;;2.20;2.00;;;;;;;21.89;76.25;100625.30;105173;1257;72699;-58
2023/08/13 01:16:42;;;;;;;4.20;2.00;;;;;;;21.82;76.47;100625.05;105200;1258;69265;-58
2023/08/13 01:19:12;;;;;;;4.60;2.70;;;;;;;21.77;76.44;100631.19;105095;1256;69224;-59
2023/08/13 01:21:40;;;;;;;2.90;2.30;;;;;;;21.73;76.53;100628.50;105117;1256;75677;-59
2023/08/13 01:24:07;;;;;;;3.70;2.10;;;;;;;21.71;76.65;100630.21;105335;1258;83543;-59
2023/08/13 01:26:49;;;;;;;3.30;2.30;;;;;;;21.66;76.59;100632.95;105300;1256;73695;-60
2023/08/13 01:29:30;;;;;;;4.50;2.20;;;;;;;21.64;76.77;100634.89;105072;1262;69232;-59
2023/08/13 01:32:00;;;;;;;3.10;2.10;;;;;;;21.63;77.01;100629.84;105175;1256;69164;-60
2023/08/13 01:34:27;;;;;;;3.30;2.10;;;;;;;21.55;76.87;100633.77;105188;1254;76295;-59
2023/08/13 01:36:54;;;;;;;3.70;2.00;;;;;;;21.52;77.08;100640.64;105003;1257;82379;-59
2023/08/13 01:39:21;;;;;;;2.80;2.60;;;;;;;21.52;77.28;100637.08;105069;1256;72632;-59
2023/08/13 01:41:53;;;;;;;2.30;1.70;;;;;;;21.54;77.34;100637.15;105084;1257;69090;-59
2023/08/13 01:44:20;;;;;;;3.10;1.90;;;;;;;21.53;77.32;100642.70;105243;1256;70591;-59
2023/08/13 01:46:48;;;;;;;3.50;1.80;;;;;;;21.53;77.42;100643.57;105141;1261;75633;-59
2023/08/13 01:49:15;;;;;;;2.00;1.70;;;;;;;21.54;77.45;100647.77;105149;1260;83452;-59
2023/08/13 01:51:42;;;;;;;2.60;2.00;;;;;;;21.54;77.53;100642.41;105133;1256;72536;-59
2023/08/13 01:54:09;;;;;;;2.60;2.00;;;;;;;21.56;77.54;100644.45;105248;1258;69200;-59
2023/08/13 01:56:36;;;;;;;2.40;1.80;;;;;;;21.58;77.63;100639.67;105254;1258;69119;-59
2023/08/13 01:59:03;;;;;;;2.80;1.80;;;;;;;21.59;77.70;100643.45;105165;1260;75805;-60
2023/08/13 02:01:30;;;;;;;3.10;2.10;;;;;;;21.61;77.60;100642.06;105184;1256;82510;-59
2023/08/13 02:03:57;;;;;;;3.30;2.00;;;;;;;21.64;77.73;100636.55;105133;1256;73888;-61
2023/08/13 02:06:24;;;;;;;5.40;2.20;;;;;;;21.65;77.86;100641.07;105173;1256;69218;-59
2023/08/13 02:08:51;;;;;;;2.20;1.70;;;;;;;21.66;77.86;100638.84;105141;1256;69186;-59
2023/08/13 02:11:18;;;;;;;3.30;1.80;;;;;;;21.66;77.81;100640.97;105193;1256;75707;-59
2023/08/13 02:13:45;;;;;;;4.70;2.20;;;;;;;21.67;77.90;100643.38;105141;1256;83333;-60
2023/08/13 02:16:12;;;;;;;3.70;2.00;;;;;;;21.69;77.97;100645.91;105207;1259;72713;-59
2023/08/13 02:18:39;;;;;;;5.30;2.00;;;;;;;21.70;77.98;100651.98;105276;1258;69110;-59
2023/08/13 02:21:06;;;;;;;1.90;1.70;;;;;;;21.72;77.98;100649.91;105077;1261;69180;-59
2023/08/13 02:23:33;;;;;;;3.60;2.10;;;;;;;21.74;78.04;100657.77;105186;1258;77448;-59
2023/08/13 02:26:01;;;;;;;4.00;2.10;;;;;;;21.74;78.04;100658.84;105299;1258;83420;-59
2023/08/13 02:28:28;;;;;;;4.20;1.90;;;;;;;21.74;77.87;100658.34;105145;1256;73665;-60
2023/08/13 02:30:55;;;;;;;2.40;1.90;;;;;;;21.73;78.01;100664.21;105115;1261;69187;-59
2023/08/13 02:33:22;;;;;;;3.10;1.80;;;;;;;21.73;78.07;100663.73;105188;1256;69201;-59
2023/08/13 02:35:49;;;;;;;3.10;1.70;;;;;;;21.73;78.03;100667.98;105230;1257;74552;-60
2023/08/13 02:38:16;;;;;;;3.30;1.90;;;;;;;21.73;78.15;100667.09;105236;1258;82479;-59
2023/08/13 02:40:43;;;;;;;3.40;1.90;;;;;;;21.72;78.09;100667.14;105243;1256;72603;-61
2023/08/13 02:43:10;;;;;;;3.60;2.30;;;;;;;21.71;78.05;100669.54;105219;1256;69065;-61
2023/08/13 02:45:37;;;;;;;2.30;1.90;;;;;;;21.71;78.18;100665.32;105231;1256;69189;-60
2023/08/13 02:48:05;;;;;;;4.20;2.20;;;;;;;21.70;78.21;100671.23;105255;1256;74713;-59
2023/08/13 02:50:33;;;;;;;4.20;2.30;;;;;;;21.69;78.22;100677.90;105197;1260;83517;-59
2023/08/13 02:53:00;;;;;;;2.70;2.30;;;;;;;21.66;78.21;100682.39;105181;1255;72864;-59
2023/08/13 02:55:27;;;;;;;4.90;2.10;;;;;;;21.64;78.40;100678.85;105221;1258;69224;-59
2023/08/13 02:57:54;;;;;;;4.40;2.70;;;;;;;21.61;78.50;100682.95;105227;1256;69618;-60
2023/08/13 03:00:24;;;;;;;;;;;;;;;21.59;78.65;100682.08;104633;1265;75733;-58
2023/08/13 03:02:51;;;;;;;3.40;2.10;;;;;;;21.56;78.92;100684.98;104624;1264;83556;-59
2023/08/13 03:05:18;;;;;;;4.20;2.30;;;;;;;21.54;78.94;100691.17;104646;1263;73726;-59
2023/08/13 03:07:45;;;;;;;4.70;2.30;;;;;;;21.53;79.10;100692.49;104683;1264;69210;-59
2023/08/13 03:10:12;;;;;;;3.90;2.10;;;;;;;21.51;79.23;100690.69;104698;1264;69338;-59
2023/08/13 03:12:39;;;;;;;3.30;2.20;;;;;;;21.50;79.29;100695.23;104658;1263;75847;-59
2023/08/13 03:15:07;;;;;;;4.20;2.20;;;;;;;21.48;79.48;100698.39;104643;1265;82395;-59
2023/08/13 03:17:34;;;;;;;3.30;2.40;;;;;;;21.46;79.43;100696.95;104632;1264;72715;-59
2023/08/13 03:20:03;;;;;;;3.10;2.10;;;;;;;21.44;79.61;100696.92;105180;1256;69191;-59
2023/08/13 03:22:30;;;;;;;3.60;2.40;;;;;;;21.42;79.84;100696.55;105158;1256;69080;-59
2023/08/13 03:24:57;;;;;;;4.50;2.40;;;;;;;21.40;79.88;100697.99;105146;1256;74748;-59
2023/08/13 03:27:24;;;;;;;5.50;2.30;;;;;;;21.37;80.07;100695.67;105266;1258;82515;-59
2023/08/13 03:29:52;;;;;;;3.60;2.20;;;;;;;21.35;80.23;100698.31;105199;1257;72639;-59
2023/08/13 03:32:19;;;;;;;2.60;2.00;;;;;;;21.32;80.24;100702.61;105209;1256;69055;-59
2023/08/13 03:34:47;;;;;;;2.60;2.20;;;;;;;21.28;80.34;100703.85;105238;1259;69190;-59
2023/08/13 03:37:14;;;;;;;3.00;2.10;;;;;;;21.23;80.49;100699.23;105226;1261;74654;-59
2023/08/13 03:39:41;;;;;;;4.20;2.60;;;;;;;21.19;80.79;100699.88;105106;1261;82557;-59
2023/08/13 03:42:08;;;;;;;4.70;2.60;;;;;;;21.18;80.95;100700.69;105118;1261;72337;-59
2023/08/13 03:44:35;;;;;;;2.90;2.20;;;;;;;21.16;80.92;100698.55;105049;1261;69197;-59
2023/08/13 03:47:02;;;;;;;4.30;2.10;;;;;;;21.14;81.11;100699.23;105049;1256;69166;-59
2023/08/13 03:49:29;;;;;;;2.70;2.00;;;;;;;21.11;81.41;100701.00;105162;1256;74543;-59
2023/08/13 03:51:56;;;;;;;3.60;2.10;;;;;;;21.10;81.54;100701.65;105193;1259;83191;-59
2023/08/13 03:54:25;;;;;;;2.30;2.10;;;;;;;21.08;81.66;100698.03;105164;1256;73847;-59
2023/08/13 03:56:51;;;;;;;3.70;2.20;;;;;;;21.08;81.91;100698.42;105256;1256;69162;-59
2023/08/13 03:59:19;;;;;;;3.20;2.20;;;;;;;21.06;81.99;100696.05;105144;1256;69146;-59
2023/08/13 04:01:47;;;;;;;3.90;2.40;;;;;;;21.06;82.15;100698.61;105199;1256;75499;-59
2023/08/13 04:04:14;;;;;;;3.10;2.20;;;;;;;21.04;82.22;100706.95;104997;1261;83353;-59
2023/08/13 04:06:43;;;;;;;3.30;2.30;;;;;;;21.00;82.26;100707.36;105027;1261;73645;-59
2023/08/13 04:09:10;;;;;;;4.20;2.30;;;;;;;20.98;82.47;100705.59;105176;1261;69309;-59
2023/08/13 04:11:37;;;;;;;3.60;2.70;;;;;;;20.96;82.59;100705.93;105197;1259;69244;-59
2023/08/13 04:14:04;;;;;;;2.70;2.40;;;;;;;20.94;82.86;100711.23;105308;1258;75688;-59
2023/08/13 04:16:31;;;;;;;3.40;2.70;;;;;;;20.90;82.94;100709.20;105241;1257;82220;-59
2023/08/13 04:18:59;;;;;;;5.90;2.80;;;;;;;20.87;83.06;100708.01;105235;1256;72625;-58
2023/08/13 04:21:27;;;;;;;3.60;2.60;;;;;;;20.86;83.28;100705.64;105196;1258;69149;-59
2023/08/13 04:23:57;;;;;;;3.20;2.50;;;;;;;20.84;83.39;100708.09;105186;1259;69305;-59
2023/08/13 04:26:25;;;;;;;3.40;2.30;;;;;;;20.82;83.64;100706.12;105110;1261;75843;-59
2023/08/13 04:28:52;;;;;;;3.60;2.40;;;;;;;20.80;83.81;100708.21;105066;1261;82341;-59
2023/08/13 04:31:20;;;;;;;2.80;2.40;;;;;;;20.78;83.94;100709.61;105125;1261;73652;-59
2023/08/13 04:33:48;;;;;;;3.10;2.80;;;;;;;20.76;84.12;100711.00;105157;1256;69209;-59
2023/08/13 04:36:16;;;;;;;3.40;2.30;;;;;;;20.74;84.33;100708.46;105175;1259;69288;-59
2023/08/13 04:38:43;;;;;;;4.20;2.60;;;;;;;20.74;84.53;100714.38;105074;1256;75713;-59
2023/08/13 04:41:10;;;;;;;3.20;2.60;;;;;;;20.74;84.71;100712.36;105189;1262;82334;-58
2023/08/13 04:43:40;;;;;;;2.80;2.10;;;;;;;20.74;84.81;100710.56;105244;1259;72576;-59
2023/08/13 04:46:07;;;;;;;7.70;2.70;;;;;;;20.75;85.11;100708.77;105193;1261;69296;-59
2023/08/13 04:48:40;;;;;;;4.40;2.50;;;;;;;20.76;85.23;100712.05;105212;1258;69138;-59
2023/08/13 04:51:08;;;;;;;2.90;2.30;;;;;;;20.77;85.37;100711.64;105295;1257;75876;-59
2023/08/13 04:53:36;;;;;;;3.90;2.60;;;;;;;20.77;85.57;100714.27;105199;1258;83421;-62
2023/08/13 04:56:05;;;;;;;2.70;2.30;;;;;;;20.78;85.54;100719.68;105076;1256;73992;-62
2023/08/13 04:58:33;;;;;;;2.70;2.40;;;;;;;20.78;85.91;100725.73;105138;1260;69216;-62
2023/08/13 05:01:00;;;;;;;3.70;2.50;;;;;;;20.78;86.02;100726.08;105177;1255;69109;-62
2023/08/13 05:03:28;;;;;;;4.50;2.70;;;;;;;20.79;86.20;100726.41;105285;1257;74695;-62
2023/08/13 05:05:56;;;;;;;2.90;2.50;;;;;;;20.79;86.29;100726.17;105199;1258;83381;-62
2023/08/13 05:08:23;;;;;;;2.50;2.30;;;;;;;20.81;86.42;100723.38;105181;1255;72679;-62
2023/08/13 05:10:51;;;;;;;5.00;2.80;;;;;;;20.81;86.44;100727.80;105158;1258;69143;-62
2023/08/13 05:13:18;;;;;;;2.90;2.30;;;;;;;20.80;86.56;100729.30;105087;1257;69277;-60
2023/08/13 05:15:45;;;;;;;5.40;2.90;;;;;;;20.79;86.63;100731.50;105114;1261;75915;-58
2023/08/13 05:18:12;;;;;;;2.80;2.40;;;;;;;20.78;86.72;100739.59;105303;1258;83980;-60
2023/08/13 05:20:39;;;;;;;3.50;2.70;;;;;;;20.77;86.83;100741.29;105202;1261;73156;-60
2023/08/13 05:23:06;;;;;;;4.10;2.50;;;;;;;20.76;86.92;100746.83;105151;1260;69100;-59
2023/08/13 05:25:38;;;;;;;4.20;2.70;;;;;;;20.76;87.16;100754.31;105142;1261;69235;-60
2023/08/13 05:28:07;;;;;;;3.50;2.50;;;;;;;20.76;87.15;100758.58;105317;1255;74668;-58
2023/08/13 05:30:36;;;;;;;3.80;2.60;;;;;;;20.77;87.36;100766.70;105348;1261;82562;-62
2023/08/13 05:33:04;;;;;;;3.50;2.90;;;;;;;20.80;87.77;100763.59;105159;1258;73683;-58
2023/08/13 05:35:32;;;;;;;4.40;2.90;;;;;;;20.85;87.89;100766.41;105305;1256;69080;-61
2023/08/13 05:37:59;;;;;;;3.60;2.80;;;;;;;20.94;88.20;100765.07;105166;1259;69250;-62
2023/08/13 05:40:26;;;;;;;3.20;2.90;;;;;;;21.02;88.38;100761.94;105273;1256;74652;-60
2023/08/13 05:42:54;;;;;;;4.10;3.10;;;;;;;21.10;88.46;100760.27;105088;1261;83229;-59
2023/08/13 05:45:21;;;;;;;3.10;2.70;;;;;;;21.16;88.39;100761.60;105128;1260;71785;-60
2023/08/13 05:47:48;;;;;;;4.10;3.20;;;;;;;21.22;88.50;100762.80;105249;1256;69159;-59
2023/08/13 05:50:15;;;;;;;3.90;3.20;;;;;;;21.24;88.28;100764.90;105335;1260;69110;-60
2023/08/13 05:52:42;;;;;;;3.10;2.70;;;;;;;21.31;88.41;100770.47;105178;1262;75660;-61
2023/08/13 05:55:09;;;;;;;5.30;2.90;;;;;;;21.37;88.46;100772.98;105272;1258;83461;-59
2023/08/13 05:57:36;;;;;;;3.60;3.20;;;;;;;21.45;88.50;100778.86;105157;1260;72713;-60
2023/08/13 06:00:09;;;;;;;3.40;3.00;;;;;;;21.50;88.49;100781.46;105364;1261;69203;-61
2023/08/13 06:02:39;;;;;;;3.30;3.00;;;;;;;21.55;88.31;100784.08;105376;1256;69168;-61
2023/08/13 06:05:06;;;;;;;3.50;3.20;;;;;;;21.57;88.34;100784.06;105344;1257;75584;-60
2023/08/13 06:07:36;;;;;;;2.90;2.60;;;;;;;21.61;88.49;100784.50;105174;1260;83643;-61
2023/08/13 06:10:04;;;;;;;3.70;3.00;;;;;;;21.68;88.64;100790.36;105283;1256;73694;-61
2023/08/13 06:12:32;;;;;;;6.50;3.10;;;;;;;21.76;88.45;100797.21;105202;1259;69218;-60
2023/08/13 06:15:00;;;;;;;4.80;3.30;;;;;;;21.85;88.40;100793.67;105167;1260;69815;-60
2023/08/13 06:17:27;;;;;;;3.80;2.90;;;;;;;21.93;88.44;100796.82;105390;1256;76042;-60
2023/08/13 06:19:54;;;;;;;4.40;3.30;;;;;;;22.01;88.40;100792.20;105222;1259;82883;-60
2023/08/13 06:22:20;;;;;;;3.70;3.20;;;;;;;22.10;88.31;100794.40;105182;1261;72598;-61
2023/08/13 06:24:48;;;;;;;4.80;3.20;;;;;;;22.15;88.08;100801.29;105142;1257;69289;-60
2023/08/13 06:27:15;;;;;;;5.50;3.80;;;;;;;22.14;87.78;100794.57;105140;1261;68945;-59
2023/08/13 06:29:42;;;;;;;3.80;3.40;;;;;;;22.14;87.90;100796.56;105172;1256;74664;-59
2023/08/13 06:32:29;;;;;;;4.80;3.50;;;;;;;22.14;87.91;100799.40;105131;1256;81348;-58
2023/08/13 06:34:56;;;;;;;4.80;3.10;;;;;;;22.16;87.83;100802.23;105156;1256;73852;-59
2023/08/13 06:37:23;;;;;;;5.00;3.60;;;;;;;22.19;88.15;100804.56;105207;1257;69161;-58
2023/08/13 06:39:50;;;;;;;5.00;3.90;;;;;;;22.21;88.02;100804.71;105329;1260;69269;-59
2023/08/13 06:42:17;;;;;;;4.30;3.80;;;;;;;22.23;87.92;100804.09;105481;1257;75628;-59
2023/08/13 06:44:44;;;;;;;4.90;4.00;;;;;;;22.24;88.07;100803.82;105194;1259;83325;-60
2023/08/13 06:47:11;;;;;;;5.20;4.20;;;;;;;22.26;87.99;100802.22;105243;1256;73773;-58
2023/08/13 06:49:39;;;;;;;4.50;3.80;;;;;;;22.28;88.06;100795.13;105134;1261;69210;-57
2023/08/13 06:52:06;;;;;;;5.30;3.30;;;;;;;22.30;88.04;100796.02;105521;1260;69191;-60
2023/08/13 06:54:33;;;;;;;6.00;3.80;;;;;;;22.34;88.23;100796.45;105387;1258;74691;-57
2023/08/13 06:57:00;;;;;;;4.90;3.80;;;;;;;22.38;88.48;100798.45;105165;1256;82301;-58
2023/08/13 06:59:27;;;;;;;4.30;3.70;;;;;;;22.43;88.38;100801.34;105307;1256;72642;-58
2023/08/13 07:01:55;;;;;;;3.90;3.60;;;;;;;22.51;88.59;100804.13;105175;1257;69520;-58
2023/08/13 07:04:22;;;;;;;6.60;4.30;;;;;;;22.59;88.34;100804.73;105514;1260;69307;-58
2023/08/13 07:06:49;;;;;;;4.50;3.80;;;;;;;22.66;88.46;100807.52;105184;1261;75941;-58
2023/08/13 07:09:16;;;;;;;4.80;4.20;;;;;;;22.76;88.16;100809.39;105160;1256;83699;-58
2023/08/13 07:11:43;;;;;;;5.50;4.10;;;;;;;22.88;88.32;100812.16;105193;1256;72572;-59
2023/08/13 07:14:10;;;;;;;5.20;4.10;;;;;;;23.03;88.17;100817.58;105388;1259;69209;-58
2023/08/13 07:16:37;;;;;;;4.40;3.90;;;;;;;23.14;87.85;100822.52;105219;1261;69181;-58
2023/08/13 07:19:04;;;;;;;5.20;4.50;;;;;;;23.26;87.63;100823.44;105337;1256;75507;-58
2023/08/13 07:21:31;;;;;;;6.40;3.60;;;;;;;23.36;87.24;100825.99;105180;1261;82930;-58
2023/08/13 07:23:58;;;;;;;4.90;3.90;;;;;;;23.51;87.15;100828.40;105208;1256;72669;-59
2023/08/13 07:26:25;;;;;;;5.40;4.50;;;;;;;23.65;86.75;100831.64;105317;1256;69193;-58
2023/08/13 07:28:52;;;;;;;4.70;4.30;;;;;;;23.75;86.17;100827.40;105314;1261;69266;-58
2023/08/13 07:31:19;;;;;;;5.10;4.30;;;;;;;23.80;85.66;100826.04;105308;1262;76143;-58
2023/08/13 07:33:46;;;;;;;6.80;4.70;;;;;;;23.89;85.69;100822.45;105341;1258;83276;-58
2023/08/13 07:36:13;;;;;;;7.90;4.90;;;;;;;23.95;85.27;100824.42;105394;1259;72346;-58
2023/08/13 07:38:40;;;;;;;5.10;4.70;;;;;;;23.97;84.88;100821.58;105292;1256;69086;-58
2023/08/13 07:41:07;;;;;;;4.70;4.30;;;;;;;24.01;84.88;100819.06;105226;1259;69037;-58
2023/08/13 07:43:34;;;;;;;6.70;4.20;;;;;;;24.10;84.54;100823.84;105199;1256;75539;-58
2023/08/13 07:46:01;;;;;;;4.70;4.20;;;;;;;24.21;84.42;100826.39;105079;1259;247421;-60
2023/08/13 07:48:28;;;;;;;5.00;4.50;;;;;;;24.32;84.08;100826.93;105321;1262;73501;-59
2023/08/13 07:50:55;;;;;;;4.70;4.30;;;;;;;24.38;83.76;100825.66;105227;1259;69210;-59
2023/08/13 07:53:22;;;;;;;5.50;4.20;;;;;;;24.47;83.59;100828.46;105218;1260;69188;-59
2023/08/13 07:55:49;;;;;;;5.10;4.30;;;;;;;24.56;83.08;100833.56;105427;1257;75792;-59
2023/08/13 07:58:17;;;;;;;5.20;4.70;;;;;;;24.58;82.85;100832.33;105252;1258;83263;-59
2023/08/13 08:00:45;;;;;;;6.40;4.60;;;;;;;24.62;82.53;100830.90;105301;1258;73726;-59
2023/08/13 08:03:12;;;;;;;5.10;4.00;;;;;;;24.63;82.10;100834.89;105230;1261;69251;-58
2023/08/13 08:05:41;;;;;;;5.30;4.20;;;;;;;24.63;81.75;100838.26;105216;1260;69121;-59
2023/08/13 08:08:08;;;;;;;4.10;3.70;;;;;;;24.64;81.60;100838.86;105386;1260;76134;-59
2023/08/13 08:10:36;;;;;;;4.50;3.90;;;;;;;24.67;81.45;100833.05;105370;1259;82048;-59
2023/08/13 08:13:04;;;;;;;6.40;3.80;;;;;;;24.80;81.57;100835.54;105198;1260;72054;-59
2023/08/13 08:15:31;;;;;;;4.10;3.70;;;;;;;24.99;81.50;100835.91;105313;1257;69257;-59
2023/08/13 08:17:58;;;;;;;4.80;4.10;;;;;;;25.20;81.27;100838.17;105481;1258;69186;-59
2023/08/13 08:20:25;;;;;;;4.50;3.60;;;;;;;25.36;80.68;100836.91;105194;1264;75645;-59
2023/08/13 08:22:52;;;;;;;6.70;3.80;;;;;;;25.48;80.01;100838.64;105266;1260;81943;-59
2023/08/13 08:25:19;;;;;;;4.90;3.90;;;;;;;25.57;79.49;100841.12;105212;1261;72741;-59
2023/08/13 08:27:46;;;;;;;5.30;3.50;;;;;;;25.63;79.17;100839.88;105200;1260;69073;-58
2023/08/13 08:30:13;;;;;;;3.20;2.90;;;;;;;25.72;78.72;100841.25;105201;1258;69190;-59
2023/08/13 08:32:40;;;;;;;2.70;2.40;;;;;;;25.77;78.08;100844.11;105330;1260;74548;-58
2023/08/13 08:35:07;;;;;;;3.50;2.50;;;;;;;25.82;77.57;100842.23;105297;1264;82572;-58
2023/08/13 08:37:35;;;;;;;2.60;2.40;;;;;;;25.86;77.14;100842.13;105176;1257;72622;-59
2023/08/13 08:40:04;;;;;;;2.90;2.30;;;;;;;25.90;76.62;100841.16;105451;1263;69167;-61
2023/08/13 08:42:31;;;;;;;4.50;2.40;;;;;;;25.92;76.09;100839.54;105369;1260;69447;-61
2023/08/13 08:44:59;;;;;;;3.50;2.50;;;;;;;26.01;75.74;100836.38;105397;1262;74493;-61
2023/08/13 08:47:27;;;;;;;3.20;1.90;;;;;;;26.12;75.28;100831.90;105326;1259;84194;-61
2023/08/13 08:49:55;;;;;;;5.80;2.30;;;;;;;26.28;75.47;100836.61;105149;1260;73615;-60
2023/08/13 08:52:22;;;;;;;3.70;2.20;;;;;;;26.39;74.35;100832.20;105332;1257;69184;-61
2023/08/13 08:54:49;;;;;;;2.60;1.70;;;;;;;26.33;73.75;100830.41;105318;1262;69215;-59
2023/08/13 08:57:16;;;;;;;3.10;1.60;;;;;;;26.26;72.92;100831.61;105370;1260;76015;-60
2023/08/13 08:59:44;;;;;;;2.30;1.60;;;;;;;26.13;72.30;100833.45;105445;1260;82387;-58
2023/08/13 09:02:11;;;;;;;2.10;1.80;;;;;;;26.02;71.88;100829.79;105457;1260;73757;-60
2023/08/13 09:04:39;;;;;;;5.10;2.20;;;;;;;25.97;72.18;100825.84;105357;1255;69243;-60
2023/08/13 09:07:06;;;;;;;2.10;1.90;;;;;;;25.97;72.29;100823.16;105203;1260;69069;-59
2023/08/13 09:09:33;;;;;;;2.90;2.40;;;;;;;26.02;72.36;100821.90;106696;1258;75663;-60
2023/08/13 09:12:00;;;;;;;3.00;2.00;;;;;;;26.10;72.30;100821.91;105234;1260;82411;-60
2023/08/13 09:14:27;;;;;;;3.50;1.90;;;;;;;26.13;71.80;100824.82;105273;1269;73666;-60
2023/08/13 09:16:56;;;;;;;3.00;1.80;;;;;;;26.19;71.74;100824.77;105210;1259;70686;-59
2023/08/13 09:19:25;;;;;;;2.50;2.20;;;;;;;26.25;71.05;100818.46;105351;1258;69289;-59
2023/08/13 09:21:58;;;;;;;2.30;2.10;;;;;;;26.32;71.07;100818.55;105283;1258;75619;-59
2023/08/13 09:24:36;;;;;;;3.90;2.20;;;;;;;26.40;71.15;100817.88;105273;1258;83345;-60
2023/08/13 09:27:05;;;;;;;3.60;2.30;;;;;;;26.48;70.73;100818.16;105361;1259;72596;-59
2023/08/13 09:29:33;;;;;;;2.80;2.30;;;;;;;26.55;70.15;100815.74;105330;1261;69202;-59
2023/08/13 09:32:01;;;;;;;2.90;2.60;;;;;;;26.53;69.65;100812.35;105304;1259;69218;-60
2023/08/13 09:34:30;;;;;;;5.10;2.20;;;;;;;26.64;70.23;100808.44;105314;1257;75847;-59
2023/08/13 09:36:57;;;;;;;4.40;2.30;;;;;;;26.89;69.99;100806.11;105281;1260;81972;-63
2023/08/13 09:39:27;;;;;;;2.50;2.10;;;;;;;27.13;69.31;100809.69;105107;1259;73557;-63
2023/08/13 09:41:55;;;;;;;2.60;2.10;;;;;;;27.38;68.94;100813.39;105289;1257;69168;-63
2023/08/13 09:44:26;;;;;;;2.70;2.30;;;;;;;27.54;68.12;100812.80;105275;1255;69173;-63
2023/08/13 09:47:17;;;;;;;2.60;2.20;;;;;;;27.56;67.23;100809.91;105303;1258;74585;-63
2023/08/13 09:49:45;;;;;;;3.10;1.90;;;;;;;27.56;67.00;100813.02;105268;1268;83500;-63
2023/08/13 09:52:15;;;;;;;3.70;2.50;;;;;;;27.47;66.37;100818.43;105300;1260;73305;-63
2023/08/13 09:54:47;;;;;;;3.20;2.40;;;;;;;27.39;66.21;100822.34;105283;1257;69291;-63
2023/08/13 09:57:15;;;;;;;3.70;2.60;;;;;;;27.33;65.74;100825.79;105247;1259;69232;-63
2023/08/13 09:59:43;;;;;;;7.50;2.80;;;;;;;27.26;65.59;100825.77;105315;1260;75674;-63
2023/08/13 10:02:13;;;;;;;4.70;2.60;;;;;;;27.22;65.43;100826.50;105364;1258;83425;-63
2023/08/13 10:04:41;;;;;;;2.70;2.30;;;;;;;27.28;65.31;100827.19;105326;1259;72639;-63
2023/08/13 10:07:08;;;;;;;4.10;1.90;;;;;;;27.24;64.74;100825.98;105268;1256;69198;-63
2023/08/13 10:09:37;;;;;;;5.40;2.40;;;;;;;27.23;64.52;100821.72;105283;1260;69165;-63
2023/08/13 10:12:09;;;;;;;2.90;1.90;;;;;;;27.27;64.32;100822.08;105329;1260;74585;-63
2023/08/13 10:14:36;;;;;;;3.60;2.00;;;;;;;27.54;64.64;100827.64;105127;1261;82453;-63
2023/08/13 10:17:06;;;;;;;2.90;2.00;;;;;;;27.66;64.13;100823.31;105371;1260;73832;-63
2023/08/13 10:19:39;;;;;;;;;;;;;;;27.85;63.71;100823.51;105334;1257;69244;-63
2023/08/13 10:22:09;;;;;;;2.30;2.10;;;;;;;28.21;63.08;100822.95;105326;1255;69218;-63
2023/08/13 10:24:37;;;;;;;3.10;2.00;;;;;;;28.59;62.66;100821.75;105304;1257;76098;-63
2023/08/13 10:27:04;;;;;;;3.50;1.90;;;;;;;28.78;61.74;100819.52;105334;1260;83206;-64
2023/08/13 10:29:36;;;;;;;2.80;1.60;;;;;;;29.11;61.50;100820.39;105260;1257;72653;-66
2023/08/13 10:32:14;;;;;;;3.20;1.60;;;;;;;29.56;60.14;100818.69;105300;1260;69120;-64
2023/08/13 10:34:51;;;;;;;3.40;1.60;;;;;;;30.09;58.98;100817.89;105331;1267;69195;-65
2023/08/13 10:37:22;;;;;;;5.20;2.40;;;;;;;30.50;58.09;100812.30;105363;1258;75817;-64
2023/08/13 10:39:55;;;;;;;3.40;2.70;;;;;;;30.67;57.15;100814.23;105294;1257;82240;-64
2023/08/13 10:42:33;;;;;;;2.90;2.50;;;;;;;30.62;56.45;100815.76;105334;1261;73836;-63
2023/08/13 10:45:05;;;;;;;2.60;2.00;;;;;;;30.78;56.13;100821.55;105360;1258;69200;-64
2023/08/13 10:47:53;;;;;;;3.30;2.90;;;;;;;30.60;55.75;100823.98;105296;1259;69201;-64
2023/08/13 10:50:23;;;;;;;1.90;1.70;;;;;;;30.23;55.07;100828.16;105372;1268;75651;-64
2023/08/13 10:53:18;;;;;;;1.50;1.40;;;;;;;29.93;54.60;100827.10;105330;1260;83259;-64
2023/08/13 10:55:48;;;;;;;3.10;1.60;;;;;;;29.57;54.09;100824.76;105249;1259;73556;-64
2023/08/13 10:58:24;;;;;;;5.20;1.40;;;;;;;29.24;54.06;100819.02;105398;1257;69182;-64
2023/08/13 11:00:52;;;;;;;1.70;1.50;;;;;;;28.95;54.41;100819.42;105321;1259;69228;-64
2023/08/13 11:03:20;;;;;;;2.70;1.80;;;;;;;28.79;54.69;100818.10;105328;1261;75644;-64
2023/08/13 11:05:48;;;;;;;2.90;1.40;;;;;;;29.07;55.42;100820.08;105304;1259;83227;-64
2023/08/13 11:08:17;;;;;;;1.70;1.40;;;;;;;29.63;55.49;100822.16;105353;1258;73636;-64
2023/08/13 11:10:46;;;;;;;3.10;2.80;;;;;;;30.16;55.02;100825.70;105322;1259;69007;-64
2023/08/13 11:13:15;;;;;;;2.10;1.40;;;;;;;30.70;54.69;100821.95;105363;1260;69203;-64
2023/08/13 11:15:53;;;;;;;2.70;1.60;;;;;;;31.25;54.28;100819.05;105333;1258;75192;-64
2023/08/13 11:18:21;;;;;;;4.30;1.30;;;;;;;31.64;52.87;100815.66;105356;1260;83267;-64
2023/08/13 11:20:49;;;;;;;10.30;9.00;;;;;;;31.71;51.87;100816.65;105301;1258;73809;-64
2023/08/13 11:23:17;;;;;;;2.00;1.20;;;;;;;32.03;51.82;100811.88;105319;1267;69800;-63